Time;durP1;ratioP1;P1;durP2;ratioP2;P2;SDS_P1;SDS_P2;PMS_P1;PMS_P2;Temp;Humidity;BMP_temperature;BMP_pressure;BME280_temperature;BME280_humidity;BME280_pressure;Samples;Min_cycle;Max_cycle;Signal;HPM_P1;HPM_P2
2022/06/13 00:01:12;;;;;;;14.20;10.68;;;16.90;99.90;;;;;;5011169;28;20100;-53
2022/06/13 00:03:38;;;;;;;12.15;9.98;;;16.90;99.90;;;;;;5010649;28;20058;-53
2022/06/13 00:06:04;;;;;;;15.52;10.20;;;17.00;99.90;;;;;;5011372;28;20067;-53
2022/06/13 00:08:30;;;;;;;15.38;10.25;;;16.90;99.90;;;;;;5011172;28;20052;-53
2022/06/13 00:10:55;;;;;;;12.27;10.45;;;16.90;99.90;;;;;;5010708;28;20172;-53
2022/06/13 00:13:21;;;;;;;13.90;10.05;;;16.90;99.90;;;;;;5011001;28;20018;-53
2022/06/13 00:15:47;;;;;;;15.98;10.90;;;16.90;99.90;;;;;;5011018;28;20763;-53
2022/06/13 00:18:12;;;;;;;13.75;10.00;;;16.80;99.90;;;;;;5011379;28;20037;-53
2022/06/13 00:20:38;;;;;;;12.35;10.13;;;16.90;99.90;;;;;;5004944;28;20049;-52
2022/06/13 00:23:04;;;;;;;12.32;9.68;;;16.90;99.90;;;;;;5031972;28;20022;-53
2022/06/13 00:25:30;;;;;;;14.23;10.18;;;16.80;99.90;;;;;;5000530;28;20095;-53
2022/06/13 00:27:56;;;;;;;15.02;11.10;;;16.60;99.90;;;;;;5001510;28;20026;-53
2022/06/13 00:30:22;;;;;;;13.07;9.85;;;16.70;99.90;;;;;;5001456;28;20025;-53
2022/06/13 00:32:48;;;;;;;18.15;11.48;;;16.70;99.90;;;;;;5000550;28;20037;-53
2022/06/13 00:35:13;;;;;;;15.10;10.82;;;16.60;99.90;;;;;;4999694;28;20033;-52
2022/06/13 00:37:39;;;;;;;14.65;10.77;;;16.60;99.90;;;;;;5001101;28;20032;-53
2022/06/13 00:40:06;;;;;;;18.10;12.18;;;16.40;99.90;;;;;;4999759;28;20054;-53
2022/06/13 00:42:32;;;;;;;13.32;11.68;;;16.10;99.90;;;;;;4999831;28;20029;-53
2022/06/13 00:45:22;;;;;;;14.80;11.65;;;16.00;99.90;;;;;;5001123;28;20041;-52
2022/06/13 00:47:52;;;;;;;16.52;11.45;;;16.00;99.90;;;;;;4998552;28;20033;-53
2022/06/13 00:50:29;;;;;;;19.13;11.90;;;16.10;99.90;;;;;;5000873;28;20041;-53
2022/06/13 00:53:17;;;;;;;18.05;12.43;;;16.00;99.90;;;;;;5000833;28;20496;-53
2022/06/13 00:56:00;;;;;;;14.43;11.38;;;16.10;99.90;;;;;;4999687;28;20483;-52
2022/06/13 00:58:29;;;;;;;14.25;12.63;;;15.90;99.90;;;;;;5030843;28;20121;-53
2022/06/13 01:00:57;;;;;;;21.35;12.23;;;16.10;99.90;;;;;;4997658;28;20014;-53
2022/06/13 01:03:25;;;;;;;16.95;13.25;;;16.10;99.90;;;;;;5000943;28;20149;-52
2022/06/13 01:05:54;;;;;;;15.43;12.20;;;16.20;99.90;;;;;;5000028;28;20022;-52
2022/06/13 01:08:23;;;;;;;15.85;12.18;;;16.30;99.90;;;;;;4998706;28;20026;-52
2022/06/13 01:13:44;;;;;;;17.75;12.57;;;16.10;99.90;;;;;;5000680;28;20153;-52
2022/06/13 01:16:20;;;;;;;19.80;12.48;;;16.10;99.90;;;;;;4999331;28;20089;-53
2022/06/13 01:18:54;;;;;;;18.42;13.35;;;16.10;99.90;;;;;;5000425;28;20041;-53
2022/06/13 01:21:30;;;;;;;19.92;13.23;;;16.10;99.90;;;;;;5010474;28;20547;-52
2022/06/13 01:24:42;;;;;;;18.80;13.27;;;16.10;99.90;;;;;;5009509;28;20376;-52
2022/06/13 01:27:26;;;;;;;17.02;12.48;;;16.10;99.90;;;;;;5010520;28;20037;-52
2022/06/13 01:30:05;;;;;;;21.63;12.52;;;15.90;99.90;;;;;;5009681;28;20040;-53
2022/06/13 01:33:04;;;;;;;17.83;13.43;;;15.90;99.90;;;;;;5010179;28;20025;-52
2022/06/13 01:35:50;;;;;;;;;;;15.90;99.90;;;;;;5010424;28;20073;-52
2022/06/13 01:38:42;;;;;;;22.50;13.65;;;15.80;99.90;;;;;;5002673;28;19905;-52
2022/06/13 01:41:16;;;;;;;18.42;13.75;;;15.80;99.90;;;;;;5009623;28;20362;-52
2022/06/13 01:44:12;;;;;;;18.35;13.07;;;15.70;99.90;;;;;;5010015;28;20473;-53
2022/06/13 01:46:47;;;;;;;18.23;13.60;;;15.70;99.90;;;;;;5009883;28;20393;-53
2022/06/13 01:49:51;;;;;;;17.92;13.18;;;15.70;99.90;;;;;;5009804;28;20037;-52
2022/06/13 01:52:52;;;;;;;18.95;12.90;;;15.60;99.90;;;;;;5005699;28;20038;-52
2022/06/13 01:55:20;;;;;;;17.60;13.98;;;15.80;99.90;;;;;;5024591;28;20038;-52
2022/06/13 01:57:52;;;;;;;18.20;13.55;;;15.70;99.90;;;;;;5009557;28;20018;-52
2022/06/13 02:00:25;;;;;;;20.83;14.20;;;15.60;99.90;;;;;;5009633;28;20033;-52
2022/06/13 02:02:56;;;;;;;17.98;13.80;;;15.40;99.90;;;;;;5024894;28;20513;-52
2022/06/13 02:05:25;;;;;;;21.67;15.40;;;15.30;99.90;;;;;;5009879;28;20026;-53
2022/06/13 02:07:58;;;;;;;19.95;14.13;;;15.50;99.90;;;;;;5009196;28;20025;-53
2022/06/13 02:10:31;;;;;;;20.77;15.38;;;15.60;99.90;;;;;;5009147;28;20057;-53
2022/06/13 02:13:04;;;;;;;18.70;14.73;;;15.80;99.90;;;;;;5009398;28;20388;-51
2022/06/13 02:15:54;;;;;;;20.08;14.32;;;15.60;99.90;;;;;;5009155;28;20516;-53
2022/06/13 02:18:44;;;;;;;17.73;13.77;;;15.70;99.90;;;;;;5009581;28;20069;-53
2022/06/13 02:21:12;;;;;;;20.77;13.85;;;15.60;99.90;;;;;;5009157;28;20053;-53
2022/06/13 02:23:46;;;;;;;17.58;14.65;;;15.50;99.90;;;;;;5009396;28;20114;-52
2022/06/13 02:26:16;;;;;;;23.05;16.90;;;15.40;99.90;;;;;;5008885;28;20038;-53
2022/06/13 02:28:44;;;;;;;20.15;17.17;;;15.30;99.90;;;;;;5009412;28;20040;-53
2022/06/13 02:31:42;;;;;;;19.58;16.60;;;15.40;99.90;;;;;;5008875;28;20032;-53
2022/06/13 02:34:14;;;;;;;20.80;17.02;;;15.60;99.90;;;;;;5024190;28;20076;-53
2022/06/13 02:36:58;;;;;;;22.02;17.23;;;15.60;99.90;;;;;;5009180;28;20388;-53
2022/06/13 02:40:13;;;;;;;21.38;17.27;;;15.50;99.90;;;;;;5009060;28;20069;-52
2022/06/13 02:42:45;;;;;;;19.08;15.52;;;15.40;99.90;;;;;;5006086;28;20042;-52
2022/06/13 02:45:19;;;;;;;21.30;17.35;;;15.50;99.90;;;;;;5008780;28;20054;-53
2022/06/13 02:48:01;;;;;;;19.98;17.55;;;15.50;99.90;;;;;;5009122;28;20237;-52
2022/06/13 02:50:47;;;;;;;19.65;15.90;;;15.40;99.90;;;;;;5008955;28;20088;-53
2022/06/13 02:53:25;;;;;;;19.35;16.60;;;15.60;99.90;;;;;;5008893;28;20022;-53
2022/06/13 02:55:58;;;;;;;;;;;15.40;99.90;;;;;;5008744;28;20038;-53
2022/06/13 02:58:47;;;;;;;24.67;18.73;;;15.30;99.90;;;;;;5008898;28;19996;-52
2022/06/13 03:01:19;;;;;;;22.15;18.83;;;15.30;99.90;;;;;;5009135;28;20026;-52
2022/06/13 03:04:06;;;;;;;22.55;19.92;;;15.20;99.90;;;;;;5008916;28;20022;-53
2022/06/13 03:06:58;;;;;;;24.95;18.27;;;15.20;99.90;;;;;;5008725;28;20507;-53
2022/06/13 03:09:37;;;;;;;22.20;17.55;;;15.20;99.90;;;;;;5008518;28;20071;-52
2022/06/13 03:12:12;;;;;;;20.75;18.30;;;15.30;99.90;;;;;;5008632;28;20102;-52
2022/06/13 03:14:54;;;;;;;21.30;19.08;;;15.40;99.90;;;;;;5008836;28;20046;-52
2022/06/13 03:17:43;;;;;;;22.17;18.63;;;15.50;99.90;;;;;;5008925;28;20026;-53
2022/06/13 03:20:20;;;;;;;24.48;19.35;;;15.40;99.90;;;;;;5008505;28;20040;-53
2022/06/13 03:23:02;;;;;;;24.70;18.25;;;15.50;99.90;;;;;;5008519;28;20079;-52
2022/06/13 03:25:39;;;;;;;24.38;19.70;;;15.60;99.90;;;;;;5008416;28;20029;-54
2022/06/13 03:28:19;;;;;;;25.10;18.90;;;15.70;99.90;;;;;;5008458;28;20474;-51
2022/06/13 03:30:57;;;;;;;27.02;19.38;;;15.70;99.90;;;;;;5008470;28;20037;-52
2022/06/13 03:33:40;;;;;;;;;;;15.80;99.90;;;;;;5009215;28;20036;-54
2022/06/13 03:36:08;;;;;;;22.08;17.92;;;15.60;99.90;;;;;;5008686;28;19917;-54
2022/06/13 03:38:39;;;;;;;25.27;19.20;;;15.70;99.90;;;;;;5010354;28;20022;-53
2022/06/13 03:41:06;;;;;;;26.60;18.98;;;15.70;99.90;;;;;;5011864;28;20030;-54
2022/06/13 03:43:51;;;;;;;23.55;18.33;;;15.70;99.90;;;;;;5012089;28;20022;-54
2022/06/13 03:46:49;;;;;;;26.60;18.02;;;15.60;99.90;;;;;;5011850;28;20153;-54
2022/06/13 03:49:34;;;;;;;20.98;17.13;;;15.70;99.90;;;;;;5011744;28;20034;-54
2022/06/13 03:52:03;;;;;;;22.30;17.67;;;15.80;99.90;;;;;;5011618;28;20033;-54
2022/06/13 03:54:37;;;;;;;22.30;17.38;;;15.80;99.90;;;;;;5011694;28;20037;-53
2022/06/13 03:57:14;;;;;;;29.33;20.52;;;15.90;99.90;;;;;;5011661;28;20560;-54
2022/06/13 03:59:59;;;;;;;22.30;19.63;;;15.90;99.90;;;;;;5011505;28;20034;-54
2022/06/13 04:02:29;;;;;;;26.42;19.33;;;15.90;99.90;;;;;;5011485;28;20049;-53
2022/06/13 04:04:55;;;;;;;25.95;20.23;;;16.00;99.90;;;;;;5011531;28;20101;-51
2022/06/13 04:07:23;;;;;;;23.90;19.03;;;16.10;99.90;;;;;;5011505;28;20145;-52
2022/06/13 04:09:56;;;;;;;26.75;20.00;;;16.10;99.90;;;;;;5011015;28;20281;-52
2022/06/13 04:12:48;;;;;;;25.05;19.17;;;16.20;99.90;;;;;;5011318;28;20037;-52
2022/06/13 04:15:13;;;;;;;23.35;20.55;;;16.20;99.90;;;;;;5010012;28;20045;-52
2022/06/13 04:18:06;;;;;;;25.95;20.38;;;16.40;99.90;;;;;;5011119;28;20481;-52
2022/06/13 04:21:17;;;;;;;26.27;20.40;;;16.40;99.90;;;;;;5011270;28;20033;-53
2022/06/13 04:24:02;;;;;;;22.77;19.23;;;16.50;99.90;;;;;;4950401;28;20073;-53
2022/06/13 04:26:54;;;;;;;22.55;19.73;;;16.60;99.90;;;;;;5006954;28;20048;-52
2022/06/13 04:29:38;;;;;;;26.77;19.00;;;16.80;99.90;;;;;;5002998;28;20045;-52
2022/06/13 04:32:09;;;;;;;24.73;18.88;;;16.70;99.90;;;;;;5010971;28;20041;-52
2022/06/13 04:34:40;;;;;;;23.63;19.67;;;16.80;99.90;;;;;;5011051;28;20041;-53
2022/06/13 04:37:07;;;;;;;23.17;17.85;;;16.80;99.90;;;;;;5011085;28;20041;-53
2022/06/13 04:39:35;;;;;;;21.13;16.27;;;16.90;99.90;;;;;;5010974;28;20041;-52
2022/06/13 04:42:04;;;;;;;21.00;16.35;;;16.90;99.90;;;;;;5010592;28;20033;-53
2022/06/13 04:44:33;;;;;;;20.90;16.70;;;17.00;99.90;;;;;;5010866;28;20034;-52
2022/06/13 04:47:00;;;;;;;22.20;16.33;;;17.10;99.90;;;;;;5010533;28;20022;-52
2022/06/13 04:49:50;;;;;;;21.63;15.50;;;17.20;99.90;;;;;;5010391;28;20503;-52
2022/06/13 04:52:20;;;;;;;25.65;17.13;;;17.30;99.90;;;;;;5008986;28;20034;-52
2022/06/13 04:54:55;;;;;;;21.45;17.17;;;17.30;99.90;;;;;;5010731;28;20141;-52
2022/06/13 04:57:21;;;;;;;23.42;18.17;;;17.30;99.90;;;;;;5010637;28;20475;-52
2022/06/13 04:59:47;;;;;;;20.05;16.30;;;17.40;99.90;;;;;;5010506;28;20731;-52
2022/06/13 05:02:17;;;;;;;19.25;14.05;;;17.50;99.90;;;;;;5010222;28;20056;-51
2022/06/13 05:04:43;;;;;;;23.48;15.68;;;17.50;99.90;;;;;;5010363;28;20504;-52
2022/06/13 05:07:14;;;;;;;19.40;15.38;;;17.50;99.90;;;;;;5010546;28;20053;-53
2022/06/13 05:09:50;;;;;;;19.25;14.85;;;17.60;99.90;;;;;;5008642;28;20045;-53
2022/06/13 05:12:40;;;;;;;21.08;14.30;;;17.70;99.90;;;;;;5010285;28;20030;-52
2022/06/13 05:15:17;;;;;;;21.05;17.83;;;17.70;99.90;;;;;;5008785;28;20050;-53
2022/06/13 05:18:01;;;;;;;18.08;15.25;;;17.80;99.90;;;;;;5010072;28;20030;-53
2022/06/13 05:20:35;;;;;;;19.25;14.75;;;17.80;99.90;;;;;;5009952;28;20058;-53
2022/06/13 05:23:19;;;;;;;21.00;16.08;;;17.90;99.90;;;;;;5010008;28;20022;-53
2022/06/13 05:25:53;;;;;;;20.95;14.13;;;18.00;99.90;;;;;;5009895;28;20026;-54
2022/06/13 05:28:21;;;;;;;17.75;12.60;;;18.00;99.90;;;;;;5009789;28;20057;-52
2022/06/13 05:30:51;;;;;;;19.33;13.48;;;18.10;99.90;;;;;;5009855;28;20018;-52
2022/06/13 05:33:20;;;;;;;15.45;11.07;;;18.10;99.90;;;;;;5009876;28;20026;-53
2022/06/13 05:35:47;;;;;;;14.40;10.18;;;18.20;99.90;;;;;;5009741;28;20044;-53
2022/06/13 05:38:19;;;;;;;17.48;9.90;;;18.20;99.90;;;;;;5009528;28;20477;-53
2022/06/13 05:40:45;;;;;;;16.52;8.98;;;18.30;99.90;;;;;;5009590;28;20466;-53
2022/06/13 05:43:13;;;;;;;13.98;9.70;;;18.30;99.90;;;;;;5009628;28;20760;-53
2022/06/13 05:45:40;;;;;;;15.32;9.27;;;18.40;99.90;;;;;;5009705;28;20088;-52
2022/06/13 05:48:11;;;;;;;15.18;8.07;;;18.50;99.90;;;;;;5009468;28;20080;-53
2022/06/13 05:50:37;;;;;;;13.35;8.07;;;18.50;99.90;;;;;;5009516;28;20129;-53
2022/06/13 05:53:03;;;;;;;19.90;7.60;;;18.60;99.90;;;;;;5009928;28;20111;-53
2022/06/13 05:55:29;;;;;;;18.52;9.50;;;18.70;99.90;;;;;;5009046;28;20726;-53
2022/06/13 05:57:54;;;;;;;19.30;8.70;;;18.80;99.90;;;;;;5009352;28;20532;-52
2022/06/13 06:00:27;;;;;;;11.38;8.32;;;18.80;99.90;;;;;;5008977;28;20076;-53
2022/06/13 06:02:52;;;;;;;12.77;8.25;;;18.80;99.90;;;;;;5009658;28;20034;-53
2022/06/13 06:05:18;;;;;;;18.67;8.52;;;18.80;99.90;;;;;;5009336;28;20424;-54
2022/06/13 06:07:44;;;;;;;13.82;8.50;;;18.90;99.90;;;;;;5009138;28;20030;-53
2022/06/13 06:10:20;;;;;;;23.25;9.45;;;18.90;99.90;;;;;;5009156;28;20069;-53
2022/06/13 06:12:46;;;;;;;13.50;8.88;;;19.00;99.90;;;;;;5008967;28;20117;-53
2022/06/13 06:15:13;;;;;;;9.68;7.65;;;19.10;99.90;;;;;;5009076;28;20120;-53
2022/06/13 06:17:38;;;;;;;16.50;8.48;;;19.10;99.90;;;;;;5008922;28;20026;-52
2022/06/13 06:20:05;;;;;;;18.15;8.40;;;19.10;99.90;;;;;;5008774;28;20080;-53
2022/06/13 06:22:30;;;;;;;11.43;7.15;;;19.20;99.90;;;;;;5005751;28;20493;-52
2022/06/13 06:24:56;;;;;;;17.20;8.60;;;19.20;99.90;;;;;;4998187;28;20070;-53
2022/06/13 06:27:22;;;;;;;11.35;7.40;;;19.30;99.90;;;;;;4999420;28;20026;-53
2022/06/13 06:29:47;;;;;;;16.55;7.45;;;19.50;99.90;;;;;;4997182;28;20097;-53
2022/06/13 06:32:13;;;;;;;12.02;6.43;;;19.50;99.90;;;;;;4997862;28;20495;-53
2022/06/13 06:34:39;;;;;;;10.32;6.05;;;19.60;99.90;;;;;;4999060;28;20069;-53
2022/06/13 06:37:04;;;;;;;11.77;5.63;;;19.60;99.90;;;;;;4998832;28;20547;-53
2022/06/13 06:39:30;;;;;;;8.43;5.28;;;19.50;99.90;;;;;;4997618;28;20049;-53
2022/06/13 06:41:56;;;;;;;9.23;5.28;;;19.50;99.90;;;;;;4996929;28;20026;-53
2022/06/13 06:44:22;;;;;;;19.25;6.60;;;19.50;99.90;;;;;;4999956;28;20026;-52
2022/06/13 06:46:48;;;;;;;15.55;5.20;;;19.50;99.90;;;;;;4996997;28;20565;-53
2022/06/13 06:49:14;;;;;;;10.90;5.07;;;19.50;99.90;;;;;;5030669;28;20065;-53
2022/06/13 06:51:43;;;;;;;8.68;6.00;;;19.50;99.90;;;;;;5004399;28;20041;-52
2022/06/13 06:59:56;;;;;;;8.60;5.88;;;19.50;99.90;;;;;;5008605;28;20032;-53
2022/06/13 07:02:23;;;;;;;7.95;4.95;;;19.50;99.90;;;;;;5008933;28;20029;-52
2022/06/13 07:04:54;;;;;;;9.23;5.13;;;19.40;99.90;;;;;;4999877;28;20470;-51
2022/06/13 07:07:20;;;;;;;8.88;5.25;;;19.40;99.90;;;;;;4997294;28;20030;-53
2022/06/13 07:09:47;;;;;;;9.68;4.85;;;19.40;99.90;;;;;;4999952;28;20756;-54
2022/06/13 07:12:13;;;;;;;13.10;5.95;;;19.40;99.90;;;;;;5003029;28;20073;-53
2022/06/13 07:14:39;;;;;;;9.70;5.80;;;19.30;99.90;;;;;;5003294;28;20037;-53
2022/06/13 07:17:07;;;;;;;11.20;5.53;;;19.20;99.90;;;;;;5001528;28;20465;-53
2022/06/13 07:19:33;;;;;;;14.77;6.65;;;19.20;99.90;;;;;;5001131;28;20057;-52
2022/06/13 07:22:00;;;;;;;10.77;6.60;;;19.20;99.90;;;;;;5002717;28;20084;-53
2022/06/13 07:24:27;;;;;;;10.40;6.72;;;19.20;99.90;;;;;;5000259;28;20433;-52
2022/06/13 07:26:52;;;;;;;12.00;7.10;;;19.10;99.90;;;;;;5001063;28;20413;-53
2022/06/13 07:29:18;;;;;;;15.43;6.68;;;19.00;99.90;;;;;;5001462;28;20026;-53
2022/06/13 07:32:04;;;;;;;13.43;7.40;;;19.00;99.90;;;;;;5003311;28;20304;-53
2022/06/13 07:34:32;;;;;;;11.35;7.60;;;18.90;99.90;;;;;;5006885;28;20034;-52
2022/06/13 07:37:00;;;;;;;9.88;6.93;;;18.90;99.90;;;;;;4995953;28;20536;-52
2022/06/13 07:39:25;;;;;;;11.02;6.40;;;18.80;99.90;;;;;;5001289;28;20045;-53
2022/06/13 07:41:52;;;;;;;12.93;5.93;;;18.70;99.90;;;;;;5002743;28;20033;-52
2022/06/13 07:44:29;;;;;;;9.93;5.35;;;18.70;99.90;;;;;;5011639;28;20473;-52
2022/06/13 07:46:55;;;;;;;10.07;5.00;;;18.80;99.90;;;;;;5011892;28;20018;-52
2022/06/13 07:49:21;;;;;;;10.48;5.70;;;18.70;99.90;;;;;;5011901;28;20041;-53
2022/06/13 07:51:47;;;;;;;9.80;6.27;;;18.80;99.90;;;;;;5011824;28;20168;-53
2022/06/13 07:54:13;;;;;;;7.30;4.95;;;18.80;99.90;;;;;;5011767;28;20469;-53
2022/06/13 07:56:40;;;;;;;7.25;4.88;;;18.70;99.90;;;;;;5011700;28;20113;-52
2022/06/13 07:59:07;;;;;;;10.25;6.03;;;18.70;99.90;;;;;;5008822;28;20044;-54
2022/06/13 08:01:36;;;;;;;13.60;6.07;;;18.70;99.90;;;;;;5000461;28;20049;-54
2022/06/13 08:04:02;;;;;;;11.80;5.70;;;18.70;99.90;;;;;;5001982;28;20441;-54
2022/06/13 08:06:27;;;;;;;9.57;5.57;;;18.70;99.90;;;;;;5000977;28;20532;-55
2022/06/13 08:08:53;;;;;;;8.82;5.18;;;18.70;99.90;;;;;;5000176;28;20022;-54
2022/06/13 08:11:35;;;;;;;13.35;5.78;;;18.70;99.90;;;;;;5001660;28;20428;-53
2022/06/13 08:14:01;;;;;;;10.23;5.88;;;18.60;99.90;;;;;;5001125;28;20662;-53
2022/06/13 08:16:27;;;;;;;16.30;7.28;;;18.60;99.90;;;;;;4998623;28;20053;-54
2022/06/13 08:18:53;;;;;;;10.40;6.00;;;18.60;99.90;;;;;;5000595;28;20069;-54
2022/06/13 08:21:18;;;;;;;8.73;5.35;;;18.60;99.90;;;;;;5000485;28;20063;-53
2022/06/13 08:23:45;;;;;;;8.57;4.25;;;18.20;99.90;;;;;;5029954;28;20033;-54
2022/06/13 08:26:11;;;;;;;7.65;4.80;;;18.20;99.90;;;;;;5004465;28;20030;-53
2022/06/13 08:28:37;;;;;;;9.55;4.93;;;18.20;99.90;;;;;;4999150;28;20036;-52
2022/06/13 08:31:09;;;;;;;11.90;4.88;;;18.30;99.90;;;;;;4999987;28;20117;-52
2022/06/13 08:33:36;;;;;;;10.35;5.47;;;18.40;99.90;;;;;;4993732;28;20026;-53
2022/06/13 08:36:02;;;;;;;10.80;5.90;;;18.50;99.90;;;;;;5001149;28;20038;-53
2022/06/13 08:38:27;;;;;;;10.68;4.90;;;18.60;99.90;;;;;;5001205;28;20029;-53
2022/06/13 08:40:53;;;;;;;9.90;5.47;;;18.60;99.90;;;;;;4994374;28;20085;-52
2022/06/13 08:43:51;;;;;;;8.00;5.82;;;18.70;99.90;;;;;;5003225;28;20045;-53
2022/06/13 08:46:45;;;;;;;13.57;5.30;;;18.70;99.90;;;;;;4982798;28;20026;-54
2022/06/13 08:49:31;;;;;;;11.02;4.78;;;18.70;99.90;;;;;;5001291;28;20119;-51
2022/06/13 08:52:04;;;;;;;7.70;3.30;;;18.70;99.90;;;;;;5038908;28;20064;-53
2022/06/13 08:54:34;;;;;;;5.70;3.38;;;18.20;99.90;;;;;;5010205;28;20611;-53
2022/06/13 08:57:05;;;;;;;6.93;3.72;;;18.10;99.90;;;;;;4993288;28;20038;-52
2022/06/13 08:59:40;;;;;;;9.30;3.83;;;18.20;99.90;;;;;;4990487;28;20129;-54
2022/06/13 09:02:19;;;;;;;7.40;3.85;;;18.20;99.90;;;;;;4990158;28;20110;-54
2022/06/13 09:05:09;;;;;;;6.93;4.32;;;18.30;99.90;;;;;;5000675;28;20042;-55
2022/06/13 09:07:41;;;;;;;9.70;4.80;;;18.30;99.90;;;;;;4997875;28;20065;-53
2022/06/13 09:10:19;;;;;;;8.13;3.95;;;18.20;99.90;;;;;;4999223;28;20038;-52
2022/06/13 09:13:12;;;;;;;11.13;5.03;;;18.30;99.90;;;;;;4988291;28;20038;-54
2022/06/13 09:15:44;;;;;;;7.82;5.40;;;18.40;99.90;;;;;;4988236;28;20030;-54
2022/06/13 09:18:25;;;;;;;7.13;4.30;;;18.40;99.90;;;;;;4988228;28;20026;-53
2022/06/13 09:20:53;;;;;;;7.97;4.65;;;18.40;99.90;;;;;;4988713;28;20173;-53
2022/06/13 09:23:47;;;;;;;10.43;5.22;;;18.40;99.90;;;;;;4989352;28;20105;-53
2022/06/13 09:26:16;;;;;;;11.25;5.45;;;18.40;99.90;;;;;;4989215;28;20022;-53
2022/06/13 09:28:59;;;;;;;5.63;4.60;;;18.40;99.90;;;;;;4989602;28;20022;-53
2022/06/13 09:31:38;;;;;;;8.23;4.47;;;18.40;99.90;;;;;;4996645;28;20159;-54
2022/06/13 09:34:14;;;;;;;7.22;4.70;;;18.40;99.90;;;;;;5009517;28;20508;-54
2022/06/13 09:37:11;;;;;;;8.63;4.82;;;18.30;99.90;;;;;;5009064;28;20148;-53
2022/06/13 09:39:38;;;;;;;7.15;4.55;;;18.20;99.90;;;;;;5001736;28;20465;-53
2022/06/13 09:42:19;;;;;;;;;;;18.30;99.90;;;;;;5010032;28;20113;-54
2022/06/13 09:44:56;;;;;;;4.18;2.90;;;18.40;99.90;;;;;;5009530;28;19940;-54
2022/06/13 09:47:29;;;;;;;;;;;18.30;99.90;;;;;;5010168;28;20023;-53
2022/06/13 09:50:17;;;;;;;4.25;3.20;;;18.30;99.90;;;;;;5009644;28;19905;-53
2022/06/13 09:52:58;;;;;;;6.95;3.53;;;18.40;99.90;;;;;;5009555;28;20076;-54
2022/06/13 09:55:49;;;;;;;6.40;3.10;;;18.40;99.90;;;;;;5009213;28;20041;-53
2022/06/13 09:58:27;;;;;;;6.03;3.35;;;18.40;99.90;;;;;;5009353;28;20109;-53
2022/06/13 10:01:03;;;;;;;4.55;3.58;;;18.30;99.90;;;;;;4996554;28;20031;-54
2022/06/13 10:03:30;;;;;;;4.47;3.35;;;18.60;99.90;;;;;;5004888;28;20026;-54
2022/06/13 10:06:15;;;;;;;4.53;3.30;;;18.60;99.90;;;;;;5000275;28;20022;-53
2022/06/13 10:09:14;;;;;;;5.85;3.38;;;18.70;99.90;;;;;;4999111;28;20083;-53
2022/06/13 10:12:19;;;;;;;8.10;3.85;;;18.80;99.90;;;;;;4999410;28;20034;-53
2022/06/13 10:15:12;;;;;;;6.47;3.90;;;18.50;99.90;;;;;;4999017;28;20053;-53
2022/06/13 10:17:52;;;;;;;8.52;4.57;;;18.70;99.90;;;;;;4993070;28;20057;-53
2022/06/13 10:20:54;;;;;;;7.30;4.43;;;18.80;99.90;;;;;;4999402;28;20033;-52
2022/06/13 10:23:39;;;;;;;7.80;4.07;;;18.80;99.90;;;;;;4999183;28;20059;-53
2022/06/13 10:26:20;;;;;;;4.85;3.50;;;19.00;99.90;;;;;;4997736;28;20018;-54
2022/06/13 10:29:06;;;;;;;6.82;4.05;;;19.10;99.90;;;;;;4999206;28;20162;-53
2022/06/13 10:31:52;;;;;;;5.95;3.72;;;19.20;99.90;;;;;;4999159;28;20070;-53
2022/06/13 10:34:47;;;;;;;6.82;3.70;;;19.10;99.90;;;;;;4998861;28;20377;-54
2022/06/13 10:37:30;;;;;;;5.35;3.42;;;19.10;99.90;;;;;;4997200;28;20031;-53
2022/06/13 10:40:00;;;;;;;4.63;3.50;;;19.10;99.90;;;;;;4999147;28;20099;-53
2022/06/13 10:42:29;;;;;;;7.50;3.75;;;19.10;99.90;;;;;;4998563;28;20062;-54
2022/06/13 10:44:56;;;;;;;14.00;4.15;;;19.10;99.90;;;;;;5020523;28;20112;-54
2022/06/13 10:47:52;;;;;;;4.85;3.15;;;19.10;99.90;;;;;;5000058;28;20062;-53
2022/06/13 10:50:34;;;;;;;37.55;7.43;;;19.10;99.90;;;;;;5003589;28;20077;-54
2022/06/13 10:53:12;;;;;;;5.53;3.33;;;19.00;99.90;;;;;;5002944;28;20220;-52
2022/06/13 10:55:41;;;;;;;7.13;2.92;;;19.10;99.90;;;;;;5002818;28;20141;-54
2022/06/13 10:58:22;;;;;;;26.75;6.25;;;19.10;99.90;;;;;;5001471;28;20030;-52
2022/06/13 11:01:14;;;;;;;5.55;3.47;;;19.30;99.90;;;;;;5003061;28;20036;-53
2022/06/13 11:04:05;;;;;;;6.38;3.90;;;19.50;99.90;;;;;;4998536;28;20367;-53
2022/06/13 11:06:47;;;;;;;6.38;3.85;;;19.60;99.90;;;;;;5000183;28;20045;-53
2022/06/13 11:09:35;;;;;;;9.93;3.97;;;19.70;99.90;;;;;;5012248;28;20058;-54
2022/06/13 11:12:04;;;;;;;6.07;2.97;;;20.10;99.90;;;;;;5012358;28;20517;-54
2022/06/13 11:14:36;;;;;;;4.32;2.40;;;20.40;99.90;;;;;;4996796;28;20435;-54
2022/06/13 11:22:40;;;;;;;8.35;3.35;;;20.60;99.90;;;;;;5010637;28;20512;-54
2022/06/13 11:25:20;;;;;;;8.68;3.20;;;20.90;99.90;;;;;;5009654;28;20485;-53
2022/06/13 11:27:59;;;;;;;6.07;2.80;;;21.00;99.90;;;;;;5011251;28;20037;-54
2022/06/13 11:30:27;;;;;;;4.03;2.50;;;20.90;99.90;;;;;;5026727;28;20029;-54
2022/06/13 11:33:10;;;;;;;4.18;1.90;;;20.90;99.90;;;;;;5011450;28;20783;-54
2022/06/13 11:35:46;;;;;;;4.63;1.80;;;21.00;99.90;;;;;;5011945;28;20042;-54
2022/06/13 11:38:35;;;;;;;3.08;1.65;;;21.00;99.90;;;;;;5011611;28;20080;-54
2022/06/13 11:41:33;;;;;;;4.68;2.10;;;20.90;99.90;;;;;;5010906;28;20132;-54
2022/06/13 11:44:06;;;;;;;5.60;2.25;;;21.10;99.90;;;;;;5009901;28;20105;-53
2022/06/13 11:46:53;;;;;;;4.97;2.20;;;21.30;99.90;;;;;;5011388;28;20083;-53
2022/06/13 11:49:22;;;;;;;4.93;2.10;;;21.20;99.90;;;;;;5011191;28;20022;-53
2022/06/13 11:52:06;;;;;;;5.95;2.35;;;21.10;99.90;;;;;;5011125;28;20107;-53
2022/06/13 11:54:48;;;;;;;4.53;2.03;;;21.30;99.90;;;;;;5010948;28;20121;-53
2022/06/13 11:57:14;;;;;;;3.75;2.10;;;21.40;99.90;;;;;;5010874;28;20054;-54
2022/06/13 11:59:55;;;;;;;4.55;2.50;;;21.50;99.90;;;;;;5010119;28;20057;-54
2022/06/13 12:02:39;;;;;;;3.45;2.33;;;21.50;99.90;;;;;;5010825;28;20034;-54
2022/06/13 12:05:22;;;;;;;3.70;1.67;;;21.50;99.90;;;;;;5010553;28;20121;-53
2022/06/13 12:08:06;;;;;;;3.83;2.13;;;21.00;99.90;;;;;;5010611;28;20030;-53
2022/06/13 12:10:41;;;;;;;8.38;2.60;;;20.80;99.90;;;;;;5010529;28;20153;-53
2022/06/13 12:13:16;;;;;;;3.35;2.30;;;20.80;99.90;;;;;;5010531;28;20022;-52
2022/06/13 12:16:09;;;;;;;6.00;2.85;;;20.60;99.90;;;;;;5010533;28;20120;-53
2022/06/13 12:18:43;;;;;;;4.40;3.28;;;20.30;99.90;;;;;;4996414;28;20049;-53
2022/06/13 12:21:32;;;;;;;6.07;3.28;;;20.10;99.90;;;;;;5010767;28;20056;-53
2022/06/13 12:24:10;;;;;;;5.60;3.22;;;19.90;99.90;;;;;;5005367;28;20037;-53
2022/06/13 12:26:40;;;;;;;4.85;3.20;;;19.80;99.90;;;;;;5021840;28;20022;-53
2022/06/13 12:29:12;;;;;;;4.47;3.20;;;19.50;99.90;;;;;;5011184;28;20430;-53
2022/06/13 12:31:47;;;;;;;5.55;4.00;;;19.40;99.90;;;;;;5010965;28;20055;-52
2022/06/13 12:34:50;;;;;;;6.53;3.50;;;19.30;99.90;;;;;;5011523;28;20037;-52
2022/06/13 12:37:21;;;;;;;6.40;3.22;;;19.20;99.90;;;;;;5019441;28;20022;-52
2022/06/13 12:39:53;;;;;;;5.07;3.42;;;19.00;99.90;;;;;;5030755;28;20024;-52
2022/06/13 12:42:21;;;;;;;4.47;3.15;;;18.70;99.90;;;;;;5017327;28;20080;-53
2022/06/13 12:45:15;;;;;;;5.18;3.50;;;18.70;99.90;;;;;;5010836;28;20042;-53
2022/06/13 12:48:19;;;;;;;6.55;3.17;;;18.60;99.90;;;;;;5010424;28;20044;-52
2022/06/13 12:50:47;;;;;;;11.05;3.47;;;18.50;99.90;;;;;;4977242;28;20498;-52
2022/06/13 12:53:27;;;;;;;6.88;3.20;;;18.50;99.90;;;;;;5010394;28;20141;-53
2022/06/13 12:56:28;;;;;;;5.28;3.10;;;18.40;99.90;;;;;;5030452;28;20559;-53
2022/06/13 12:59:49;;;;;;;5.05;3.65;;;18.30;99.90;;;;;;5027912;28;20095;-53
2022/06/13 13:02:30;;;;;;;3.60;3.03;;;18.20;99.90;;;;;;4984679;28;20048;-53
2022/06/13 13:05:01;;;;;;;5.13;3.42;;;18.20;99.90;;;;;;5030161;28;20044;-52
2022/06/13 13:07:47;;;;;;;5.00;3.30;;;18.20;99.90;;;;;;5030062;28;20572;-52
2022/06/13 13:10:39;;;;;;;4.32;3.10;;;18.00;99.90;;;;;;5029729;28;20068;-53
2022/06/13 13:13:10;;;;;;;6.13;2.85;;;17.90;99.90;;;;;;5029905;28;20082;-52
2022/06/13 13:16:11;;;;;;;5.28;2.95;;;17.90;99.90;;;;;;5029871;28;20041;-53
2022/06/13 13:18:37;;;;;;;6.22;3.35;;;17.90;99.90;;;;;;5029692;28;20029;-53
2022/06/13 13:21:28;;;;;;;4.97;3.83;;;17.80;99.90;;;;;;5023273;28;20021;-52
2022/06/13 13:23:59;;;;;;;5.68;2.88;;;17.70;99.90;;;;;;5010192;28;20362;-53
2022/06/13 13:26:38;;;;;;;5.45;2.70;;;17.70;99.90;;;;;;5009797;28;20033;-52
2022/06/13 13:29:29;;;;;;;8.60;4.15;;;17.70;99.90;;;;;;5010306;28;20030;-52
2022/06/13 13:32:01;;;;;;;11.40;3.75;;;17.60;99.90;;;;;;5010200;28;20026;-51
2022/06/13 13:34:58;;;;;;;8.15;3.85;;;17.50;99.90;;;;;;5008393;28;20057;-58
2022/06/13 13:37:27;;;;;;;4.72;3.47;;;17.40;99.90;;;;;;5010014;28;20418;-53